sensor_id;sensor_type;location;lat;lon;timestamp;P1;durP1;ratioP1;P2;durP2;ratioP2
76745;SDS011;65671;49.976;20.038;2023-09-19T00:01:42;9.02;;;6.53;;
76745;SDS011;65671;49.976;20.038;2023-09-19T00:04:11;11.48;;;6.85;;
76745;SDS011;65671;49.976;20.038;2023-09-19T00:06:37;8.30;;;6.70;;
76745;SDS011;65671;49.976;20.038;2023-09-19T00:09:03;9.47;;;7.07;;
76745;SDS011;65671;49.976;20.038;2023-09-19T00:11:28;11.52;;;6.95;;
76745;SDS011;65671;49.976;20.038;2023-09-19T00:13:54;8.50;;;5.93;;
76745;SDS011;65671;49.976;20.038;2023-09-19T00:16:19;8.23;;;6.60;;
76745;SDS011;65671;49.976;20.038;2023-09-19T00:18:45;7.95;;;6.70;;
76745;SDS011;65671;49.976;20.038;2023-09-19T00:21:10;16.52;;;7.47;;
76745;SDS011;65671;49.976;20.038;2023-09-19T00:23:36;8.68;;;6.78;;
76745;SDS011;65671;49.976;20.038;2023-09-19T00:26:01;9.63;;;7.25;;
76745;SDS011;65671;49.976;20.038;2023-09-19T00:28:27;13.10;;;7.05;;
76745;SDS011;65671;49.976;20.038;2023-09-19T00:30:52;8.70;;;6.80;;
76745;SDS011;65671;49.976;20.038;2023-09-19T00:33:20;9.75;;;6.75;;
76745;SDS011;65671;49.976;20.038;2023-09-19T00:35:53;10.30;;;6.90;;
76745;SDS011;65671;49.976;20.038;2023-09-19T00:38:18;9.70;;;7.07;;
76745;SDS011;65671;49.976;20.038;2023-09-19T00:40:46;9.57;;;6.93;;
76745;SDS011;65671;49.976;20.038;2023-09-19T00:43:12;9.07;;;7.05;;
76745;SDS011;65671;49.976;20.038;2023-09-19T00:45:37;10.40;;;6.67;;
76745;SDS011;65671;49.976;20.038;2023-09-19T00:48:07;9.55;;;7.20;;
76745;SDS011;65671;49.976;20.038;2023-09-19T00:50:34;13.60;;;8.02;;
76745;SDS011;65671;49.976;20.038;2023-09-19T00:53:00;10.38;;;7.05;;
76745;SDS011;65671;49.976;20.038;2023-09-19T00:55:25;10.93;;;7.65;;
76745;SDS011;65671;49.976;20.038;2023-09-19T00:57:51;11.00;;;7.43;;
76745;SDS011;65671;49.976;20.038;2023-09-19T01:00:16;10.98;;;7.68;;
76745;SDS011;65671;49.976;20.038;2023-09-19T01:02:45;10.45;;;7.97;;
76745;SDS011;65671;49.976;20.038;2023-09-19T01:05:11;12.18;;;8.07;;
76745;SDS011;65671;49.976;20.038;2023-09-19T01:07:37;13.40;;;8.65;;
76745;SDS011;65671;49.976;20.038;2023-09-19T01:10:05;12.27;;;8.68;;
76745;SDS011;65671;49.976;20.038;2023-09-19T01:15:08;15.85;;;10.27;;
76745;SDS011;65671;49.976;20.038;2023-09-19T01:17:51;14.02;;;9.35;;
76745;SDS011;65671;49.976;20.038;2023-09-19T01:22:48;15.38;;;10.02;;
76745;SDS011;65671;49.976;20.038;2023-09-19T01:25:28;15.20;;;11.80;;
76745;SDS011;65671;49.976;20.038;2023-09-19T01:30:43;16.08;;;11.93;;
76745;SDS011;65671;49.976;20.038;2023-09-19T01:33:09;15.75;;;11.60;;
76745;SDS011;65671;49.976;20.038;2023-09-19T01:35:37;15.85;;;11.60;;
76745;SDS011;65671;49.976;20.038;2023-09-19T01:38:04;17.33;;;12.07;;
76745;SDS011;65671;49.976;20.038;2023-09-19T01:40:29;16.60;;;11.73;;
76745;SDS011;65671;49.976;20.038;2023-09-19T01:43:07;17.27;;;11.15;;
76745;SDS011;65671;49.976;20.038;2023-09-19T01:48:43;16.17;;;11.15;;
76745;SDS011;65671;49.976;20.038;2023-09-19T01:51:13;16.95;;;11.50;;
76745;SDS011;65671;49.976;20.038;2023-09-19T01:56:05;22.95;;;12.68;;
76745;SDS011;65671;49.976;20.038;2023-09-19T02:01:00;18.60;;;12.90;;
76745;SDS011;65671;49.976;20.038;2023-09-19T02:03:26;18.40;;;12.50;;
76745;SDS011;65671;49.976;20.038;2023-09-19T02:05:53;17.33;;;11.88;;
76745;SDS011;65671;49.976;20.038;2023-09-19T02:08:20;18.33;;;12.10;;
76745;SDS011;65671;49.976;20.038;2023-09-19T02:10:45;17.85;;;13.30;;
76745;SDS011;65671;49.976;20.038;2023-09-19T02:13:15;19.38;;;13.27;;
76745;SDS011;65671;49.976;20.038;2023-09-19T02:15:41;18.42;;;13.32;;
76745;SDS011;65671;49.976;20.038;2023-09-19T02:18:06;21.73;;;12.73;;
76745;SDS011;65671;49.976;20.038;2023-09-19T02:20:32;18.63;;;13.00;;
76745;SDS011;65671;49.976;20.038;2023-09-19T02:22:58;17.00;;;12.95;;
76745;SDS011;65671;49.976;20.038;2023-09-19T02:25:23;17.80;;;12.82;;
76745;SDS011;65671;49.976;20.038;2023-09-19T02:27:51;16.63;;;13.10;;
76745;SDS011;65671;49.976;20.038;2023-09-19T02:30:19;19.63;;;13.02;;
76745;SDS011;65671;49.976;20.038;2023-09-19T02:32:46;19.20;;;13.57;;
76745;SDS011;65671;49.976;20.038;2023-09-19T02:35:11;18.25;;;13.00;;
76745;SDS011;65671;49.976;20.038;2023-09-19T02:37:37;20.13;;;13.15;;
76745;SDS011;65671;49.976;20.038;2023-09-19T02:40:03;19.75;;;13.80;;
76745;SDS011;65671;49.976;20.038;2023-09-19T02:42:30;22.92;;;14.35;;
76745;SDS011;65671;49.976;20.038;2023-09-19T02:44:56;20.30;;;12.93;;
76745;SDS011;65671;49.976;20.038;2023-09-19T02:47:21;21.02;;;14.00;;
76745;SDS011;65671;49.976;20.038;2023-09-19T02:49:47;17.88;;;13.32;;
76745;SDS011;65671;49.976;20.038;2023-09-19T02:52:13;17.95;;;13.40;;
76745;SDS011;65671;49.976;20.038;2023-09-19T02:54:39;21.77;;;14.57;;
76745;SDS011;65671;49.976;20.038;2023-09-19T02:57:05;17.40;;;12.88;;
76745;SDS011;65671;49.976;20.038;2023-09-19T02:59:31;19.58;;;13.88;;
76745;SDS011;65671;49.976;20.038;2023-09-19T03:01:57;18.85;;;13.50;;
76745;SDS011;65671;49.976;20.038;2023-09-19T03:04:22;17.52;;;12.85;;
76745;SDS011;65671;49.976;20.038;2023-09-19T03:06:48;18.50;;;13.75;;
76745;SDS011;65671;49.976;20.038;2023-09-19T03:09:16;19.27;;;13.43;;
76745;SDS011;65671;49.976;20.038;2023-09-19T03:11:42;17.95;;;13.05;;
76745;SDS011;65671;49.976;20.038;2023-09-19T03:14:07;20.05;;;13.95;;
76745;SDS011;65671;49.976;20.038;2023-09-19T03:16:35;18.48;;;13.52;;
76745;SDS011;65671;49.976;20.038;2023-09-19T03:19:02;19.27;;;13.55;;
76745;SDS011;65671;49.976;20.038;2023-09-19T03:21:27;19.20;;;14.35;;
76745;SDS011;65671;49.976;20.038;2023-09-19T03:23:54;19.80;;;12.93;;
76745;SDS011;65671;49.976;20.038;2023-09-19T03:26:20;21.00;;;14.20;;
76745;SDS011;65671;49.976;20.038;2023-09-19T03:28:45;18.48;;;12.93;;
76745;SDS011;65671;49.976;20.038;2023-09-19T03:31:12;19.38;;;12.65;;
76745;SDS011;65671;49.976;20.038;2023-09-19T03:33:37;19.37;;;13.77;;
76745;SDS011;65671;49.976;20.038;2023-09-19T03:36:03;19.73;;;14.23;;
76745;SDS011;65671;49.976;20.038;2023-09-19T03:38:31;17.50;;;13.68;;
76745;SDS011;65671;49.976;20.038;2023-09-19T03:40:57;21.15;;;14.75;;
76745;SDS011;65671;49.976;20.038;2023-09-19T03:43:22;18.63;;;13.52;;
76745;SDS011;65671;49.976;20.038;2023-09-19T03:45:48;20.98;;;14.02;;
76745;SDS011;65671;49.976;20.038;2023-09-19T03:48:14;17.40;;;13.57;;
76745;SDS011;65671;49.976;20.038;2023-09-19T03:50:39;23.52;;;15.02;;
76745;SDS011;65671;49.976;20.038;2023-09-19T03:53:04;23.97;;;14.13;;
76745;SDS011;65671;49.976;20.038;2023-09-19T03:55:32;18.95;;;14.65;;
76745;SDS011;65671;49.976;20.038;2023-09-19T03:57:57;21.45;;;14.40;;
76745;SDS011;65671;49.976;20.038;2023-09-19T04:00:23;20.38;;;14.15;;
76745;SDS011;65671;49.976;20.038;2023-09-19T04:02:51;18.80;;;15.02;;
76745;SDS011;65671;49.976;20.038;2023-09-19T04:05:17;20.17;;;13.85;;
76745;SDS011;65671;49.976;20.038;2023-09-19T04:07:42;17.40;;;13.15;;
76745;SDS011;65671;49.976;20.038;2023-09-19T04:10:08;17.95;;;13.18;;
76745;SDS011;65671;49.976;20.038;2023-09-19T04:12:35;19.27;;;14.07;;
76745;SDS011;65671;49.976;20.038;2023-09-19T04:15:00;16.98;;;12.80;;
76745;SDS011;65671;49.976;20.038;2023-09-19T04:17:26;18.33;;;13.90;;
76745;SDS011;65671;49.976;20.038;2023-09-19T04:19:51;19.13;;;13.93;;
76745;SDS011;65671;49.976;20.038;2023-09-19T04:22:16;18.35;;;14.25;;
76745;SDS011;65671;49.976;20.038;2023-09-19T04:24:42;18.50;;;13.35;;
76745;SDS011;65671;49.976;20.038;2023-09-19T04:27:07;19.13;;;13.88;;
76745;SDS011;65671;49.976;20.038;2023-09-19T04:29:34;18.08;;;13.77;;
76745;SDS011;65671;49.976;20.038;2023-09-19T04:32:00;17.60;;;13.52;;
76745;SDS011;65671;49.976;20.038;2023-09-19T04:34:25;18.20;;;14.35;;
76745;SDS011;65671;49.976;20.038;2023-09-19T04:36:51;18.80;;;12.47;;
76745;SDS011;65671;49.976;20.038;2023-09-19T04:39:16;19.17;;;14.32;;
76745;SDS011;65671;49.976;20.038;2023-09-19T04:41:42;18.17;;;13.38;;
76745;SDS011;65671;49.976;20.038;2023-09-19T04:44:11;22.30;;;12.70;;
76745;SDS011;65671;49.976;20.038;2023-09-19T04:46:37;15.90;;;12.30;;
76745;SDS011;65671;49.976;20.038;2023-09-19T04:49:03;17.37;;;12.10;;
76745;SDS011;65671;49.976;20.038;2023-09-19T04:51:28;18.65;;;13.60;;
76745;SDS011;65671;49.976;20.038;2023-09-19T04:53:59;19.25;;;13.50;;
76745;SDS011;65671;49.976;20.038;2023-09-19T04:56:24;20.47;;;15.07;;
76745;SDS011;65671;49.976;20.038;2023-09-19T04:58:49;19.10;;;14.30;;
76745;SDS011;65671;49.976;20.038;2023-09-19T05:01:16;23.20;;;15.27;;
76745;SDS011;65671;49.976;20.038;2023-09-19T05:03:42;19.02;;;14.15;;
76745;SDS011;65671;49.976;20.038;2023-09-19T05:06:08;21.27;;;15.85;;
76745;SDS011;65671;49.976;20.038;2023-09-19T05:08:33;20.80;;;14.13;;
76745;SDS011;65671;49.976;20.038;2023-09-19T05:11:01;20.73;;;14.27;;
76745;SDS011;65671;49.976;20.038;2023-09-19T05:13:26;19.20;;;14.38;;
76745;SDS011;65671;49.976;20.038;2023-09-19T05:15:52;21.27;;;15.32;;
76745;SDS011;65671;49.976;20.038;2023-09-19T05:18:17;21.10;;;15.73;;
76745;SDS011;65671;49.976;20.038;2023-09-19T05:20:43;23.10;;;16.00;;
76745;SDS011;65671;49.976;20.038;2023-09-19T05:23:09;24.08;;;17.52;;
76745;SDS011;65671;49.976;20.038;2023-09-19T05:25:37;41.65;;;16.73;;
76745;SDS011;65671;49.976;20.038;2023-09-19T05:28:07;47.05;;;17.10;;
76745;SDS011;65671;49.976;20.038;2023-09-19T05:30:32;25.05;;;17.05;;
76745;SDS011;65671;49.976;20.038;2023-09-19T05:32:58;24.40;;;16.58;;
76745;SDS011;65671;49.976;20.038;2023-09-19T05:35:23;27.13;;;16.75;;
76745;SDS011;65671;49.976;20.038;2023-09-19T05:37:52;24.35;;;16.48;;
76745;SDS011;65671;49.976;20.038;2023-09-19T05:40:18;27.23;;;17.45;;
76745;SDS011;65671;49.976;20.038;2023-09-19T05:42:44;26.83;;;17.58;;
76745;SDS011;65671;49.976;20.038;2023-09-19T05:45:10;28.25;;;17.77;;
76745;SDS011;65671;49.976;20.038;2023-09-19T05:47:37;28.65;;;19.08;;
76745;SDS011;65671;49.976;20.038;2023-09-19T05:50:03;29.33;;;18.00;;
76745;SDS011;65671;49.976;20.038;2023-09-19T05:52:28;22.98;;;17.02;;
76745;SDS011;65671;49.976;20.038;2023-09-19T05:54:55;29.95;;;18.58;;
76745;SDS011;65671;49.976;20.038;2023-09-19T05:57:21;27.50;;;18.10;;
76745;SDS011;65671;49.976;20.038;2023-09-19T05:59:47;29.58;;;18.60;;
76745;SDS011;65671;49.976;20.038;2023-09-19T06:02:15;27.67;;;19.13;;
76745;SDS011;65671;49.976;20.038;2023-09-19T06:04:40;25.23;;;17.02;;
76745;SDS011;65671;49.976;20.038;2023-09-19T06:07:06;26.17;;;18.03;;
76745;SDS011;65671;49.976;20.038;2023-09-19T06:09:31;26.50;;;18.58;;
76745;SDS011;65671;49.976;20.038;2023-09-19T06:11:57;28.83;;;19.17;;
76745;SDS011;65671;49.976;20.038;2023-09-19T06:14:22;33.63;;;20.30;;
76745;SDS011;65671;49.976;20.038;2023-09-19T06:16:49;30.60;;;21.63;;
76745;SDS011;65671;49.976;20.038;2023-09-19T06:19:14;32.60;;;21.08;;
76745;SDS011;65671;49.976;20.038;2023-09-19T06:21:40;31.43;;;20.93;;
76745;SDS011;65671;49.976;20.038;2023-09-19T06:24:05;31.60;;;20.98;;
76745;SDS011;65671;49.976;20.038;2023-09-19T06:26:31;31.92;;;21.60;;
76745;SDS011;65671;49.976;20.038;2023-09-19T06:28:57;31.02;;;20.83;;
76745;SDS011;65671;49.976;20.038;2023-09-19T06:31:22;35.65;;;22.90;;
76745;SDS011;65671;49.976;20.038;2023-09-19T06:33:51;34.30;;;22.23;;
76745;SDS011;65671;49.976;20.038;2023-09-19T06:36:16;31.48;;;21.63;;
76745;SDS011;65671;49.976;20.038;2023-09-19T06:38:42;31.40;;;21.50;;
76745;SDS011;65671;49.976;20.038;2023-09-19T06:41:07;33.25;;;21.73;;
76745;SDS011;65671;49.976;20.038;2023-09-19T06:43:34;32.80;;;21.52;;
76745;SDS011;65671;49.976;20.038;2023-09-19T06:46:00;32.92;;;21.13;;
76745;SDS011;65671;49.976;20.038;2023-09-19T06:48:26;32.38;;;20.75;;
76745;SDS011;65671;49.976;20.038;2023-09-19T06:50:55;28.98;;;18.95;;
76745;SDS011;65671;49.976;20.038;2023-09-19T06:53:21;28.10;;;17.85;;
76745;SDS011;65671;49.976;20.038;2023-09-19T06:55:48;23.35;;;16.33;;
76745;SDS011;65671;49.976;20.038;2023-09-19T06:58:14;19.85;;;14.38;;
76745;SDS011;65671;49.976;20.038;2023-09-19T07:00:41;19.92;;;14.40;;
76745;SDS011;65671;49.976;20.038;2023-09-19T07:03:07;38.17;;;17.58;;
76745;SDS011;65671;49.976;20.038;2023-09-19T07:05:40;23.70;;;17.17;;
76745;SDS011;65671;49.976;20.038;2023-09-19T07:08:06;26.50;;;17.83;;
76745;SDS011;65671;49.976;20.038;2023-09-19T07:10:32;24.88;;;16.25;;
76745;SDS011;65671;49.976;20.038;2023-09-19T07:15:23;28.73;;;18.75;;
76745;SDS011;65671;49.976;20.038;2023-09-19T07:17:50;25.48;;;17.85;;
76745;SDS011;65671;49.976;20.038;2023-09-19T07:20:15;26.52;;;18.38;;
76745;SDS011;65671;49.976;20.038;2023-09-19T07:22:41;26.58;;;17.55;;
76745;SDS011;65671;49.976;20.038;2023-09-19T07:25:07;26.40;;;17.60;;
76745;SDS011;65671;49.976;20.038;2023-09-19T07:27:32;25.67;;;17.33;;
76745;SDS011;65671;49.976;20.038;2023-09-19T07:29:57;31.83;;;18.87;;
76745;SDS011;65671;49.976;20.038;2023-09-19T07:32:23;30.00;;;18.40;;
76745;SDS011;65671;49.976;20.038;2023-09-19T07:34:49;28.08;;;18.48;;
76745;SDS011;65671;49.976;20.038;2023-09-19T07:37:14;25.50;;;17.08;;
76745;SDS011;65671;49.976;20.038;2023-09-19T07:39:40;26.08;;;17.20;;
76745;SDS011;65671;49.976;20.038;2023-09-19T07:42:06;23.35;;;16.58;;
76745;SDS011;65671;49.976;20.038;2023-09-19T07:44:32;22.35;;;16.23;;
76745;SDS011;65671;49.976;20.038;2023-09-19T07:46:57;19.02;;;13.60;;
76745;SDS011;65671;49.976;20.038;2023-09-19T07:49:22;20.20;;;13.98;;
76745;SDS011;65671;49.976;20.038;2023-09-19T07:51:48;17.42;;;13.07;;
76745;SDS011;65671;49.976;20.038;2023-09-19T07:54:13;19.17;;;12.70;;
76745;SDS011;65671;49.976;20.038;2023-09-19T07:56:40;15.65;;;11.18;;
76745;SDS011;65671;49.976;20.038;2023-09-19T07:59:05;14.57;;;10.27;;
76745;SDS011;65671;49.976;20.038;2023-09-19T08:01:30;13.97;;;8.63;;
76745;SDS011;65671;49.976;20.038;2023-09-19T08:03:56;9.57;;;7.07;;
76745;SDS011;65671;49.976;20.038;2023-09-19T08:06:22;9.35;;;6.93;;
76745;SDS011;65671;49.976;20.038;2023-09-19T08:08:50;8.70;;;5.95;;
76745;SDS011;65671;49.976;20.038;2023-09-19T08:11:15;7.05;;;5.72;;
76745;SDS011;65671;49.976;20.038;2023-09-19T08:13:46;6.43;;;5.43;;
76745;SDS011;65671;49.976;20.038;2023-09-19T08:16:13;7.03;;;5.18;;
76745;SDS011;65671;49.976;20.038;2023-09-19T08:18:40;6.63;;;4.70;;
76745;SDS011;65671;49.976;20.038;2023-09-19T08:21:06;9.85;;;5.63;;
76745;SDS011;65671;49.976;20.038;2023-09-19T08:23:36;6.82;;;5.05;;
76745;SDS011;65671;49.976;20.038;2023-09-19T08:26:03;8.15;;;5.45;;
76745;SDS011;65671;49.976;20.038;2023-09-19T08:28:32;6.45;;;5.20;;
76745;SDS011;65671;49.976;20.038;2023-09-19T08:31:08;8.00;;;4.97;;
76745;SDS011;65671;49.976;20.038;2023-09-19T08:33:34;7.95;;;4.80;;
76745;SDS011;65671;49.976;20.038;2023-09-19T08:36:00;6.97;;;4.63;;
76745;SDS011;65671;49.976;20.038;2023-09-19T08:38:25;7.35;;;5.18;;
76745;SDS011;65671;49.976;20.038;2023-09-19T08:40:57;7.20;;;5.03;;
76745;SDS011;65671;49.976;20.038;2023-09-19T08:43:26;6.93;;;5.38;;
76745;SDS011;65671;49.976;20.038;2023-09-19T08:45:54;7.57;;;5.53;;
76745;SDS011;65671;49.976;20.038;2023-09-19T08:48:28;8.13;;;5.75;;
76745;SDS011;65671;49.976;20.038;2023-09-19T08:53:41;7.10;;;5.17;;
76745;SDS011;65671;49.976;20.038;2023-09-19T08:56:06;6.32;;;4.65;;
76745;SDS011;65671;49.976;20.038;2023-09-19T08:58:34;6.57;;;4.93;;
76745;SDS011;65671;49.976;20.038;2023-09-19T09:01:05;6.63;;;5.25;;
76745;SDS011;65671;49.976;20.038;2023-09-19T09:03:32;7.90;;;5.30;;
76745;SDS011;65671;49.976;20.038;2023-09-19T09:05:57;8.77;;;5.60;;
76745;SDS011;65671;49.976;20.038;2023-09-19T09:08:23;7.43;;;5.20;;
76745;SDS011;65671;49.976;20.038;2023-09-19T09:10:49;7.03;;;5.20;;
76745;SDS011;65671;49.976;20.038;2023-09-19T09:13:15;7.15;;;5.22;;
76745;SDS011;65671;49.976;20.038;2023-09-19T09:15:41;9.23;;;6.13;;
76745;SDS011;65671;49.976;20.038;2023-09-19T09:18:09;8.20;;;5.63;;
76745;SDS011;65671;49.976;20.038;2023-09-19T09:20:35;10.25;;;7.30;;
76745;SDS011;65671;49.976;20.038;2023-09-19T09:23:01;10.52;;;7.18;;
76745;SDS011;65671;49.976;20.038;2023-09-19T09:28:34;8.15;;;6.20;;
76745;SDS011;65671;49.976;20.038;2023-09-19T09:31:04;12.85;;;7.80;;
76745;SDS011;65671;49.976;20.038;2023-09-19T09:33:34;10.45;;;7.07;;
76745;SDS011;65671;49.976;20.038;2023-09-19T09:35:59;11.68;;;7.78;;
76745;SDS011;65671;49.976;20.038;2023-09-19T09:38:29;10.02;;;7.70;;
76745;SDS011;65671;49.976;20.038;2023-09-19T09:40:58;10.65;;;6.90;;
76745;SDS011;65671;49.976;20.038;2023-09-19T09:43:32;13.73;;;8.82;;
76745;SDS011;65671;49.976;20.038;2023-09-19T09:46:11;12.43;;;7.90;;
76745;SDS011;65671;49.976;20.038;2023-09-19T09:48:46;11.10;;;7.35;;
76745;SDS011;65671;49.976;20.038;2023-09-19T09:51:32;11.80;;;7.72;;
76745;SDS011;65671;49.976;20.038;2023-09-19T09:54:17;10.90;;;7.18;;
76745;SDS011;65671;49.976;20.038;2023-09-19T09:56:55;11.77;;;7.13;;
76745;SDS011;65671;49.976;20.038;2023-09-19T09:59:45;10.80;;;7.57;;
76745;SDS011;65671;49.976;20.038;2023-09-19T10:02:11;12.20;;;7.75;;
76745;SDS011;65671;49.976;20.038;2023-09-19T10:04:38;12.55;;;7.90;;
76745;SDS011;65671;49.976;20.038;2023-09-19T10:09:45;13.70;;;7.93;;
76745;SDS011;65671;49.976;20.038;2023-09-19T10:12:12;12.63;;;8.02;;
76745;SDS011;65671;49.976;20.038;2023-09-19T10:14:38;10.55;;;8.18;;
76745;SDS011;65671;49.976;20.038;2023-09-19T10:17:05;11.75;;;7.78;;
76745;SDS011;65671;49.976;20.038;2023-09-19T10:20:16;12.23;;;8.13;;
76745;SDS011;65671;49.976;20.038;2023-09-19T10:22:16;13.40;;;8.60;;
76745;SDS011;65671;49.976;20.038;2023-09-19T10:24:47;11.20;;;7.53;;
76745;SDS011;65671;49.976;20.038;2023-09-19T10:27:17;11.77;;;7.90;;
76745;SDS011;65671;49.976;20.038;2023-09-19T10:29:44;12.02;;;8.40;;
76745;SDS011;65671;49.976;20.038;2023-09-19T10:32:12;12.30;;;8.30;;
76745;SDS011;65671;49.976;20.038;2023-09-19T10:34:43;11.77;;;8.50;;
76745;SDS011;65671;49.976;20.038;2023-09-19T10:37:10;10.77;;;8.00;;
76745;SDS011;65671;49.976;20.038;2023-09-19T10:39:37;11.10;;;7.95;;
76745;SDS011;65671;49.976;20.038;2023-09-19T10:42:06;10.50;;;8.38;;
76745;SDS011;65671;49.976;20.038;2023-09-19T10:44:32;15.25;;;7.97;;
76745;SDS011;65671;49.976;20.038;2023-09-19T10:46:58;12.15;;;7.63;;
76745;SDS011;65671;49.976;20.038;2023-09-19T10:49:24;11.63;;;7.80;;
76745;SDS011;65671;49.976;20.038;2023-09-19T10:51:51;10.95;;;7.47;;
76745;SDS011;65671;49.976;20.038;2023-09-19T10:54:20;11.68;;;7.68;;
76745;SDS011;65671;49.976;20.038;2023-09-19T10:56:48;12.10;;;8.05;;
76745;SDS011;65671;49.976;20.038;2023-09-19T10:59:16;11.20;;;7.38;;
76745;SDS011;65671;49.976;20.038;2023-09-19T11:01:53;11.38;;;8.05;;
76745;SDS011;65671;49.976;20.038;2023-09-19T11:04:22;14.68;;;8.18;;
76745;SDS011;65671;49.976;20.038;2023-09-19T11:09:25;11.50;;;7.60;;
76745;SDS011;65671;49.976;20.038;2023-09-19T11:12:07;11.88;;;8.15;;
76745;SDS011;65671;49.976;20.038;2023-09-19T11:14:37;10.00;;;7.93;;
76745;SDS011;65671;49.976;20.038;2023-09-19T11:22:24;15.45;;;8.63;;
76745;SDS011;65671;49.976;20.038;2023-09-19T11:24:51;12.52;;;8.55;;
76745;SDS011;65671;49.976;20.038;2023-09-19T11:27:17;11.82;;;7.43;;
76745;SDS011;65671;49.976;20.038;2023-09-19T11:29:43;12.55;;;8.43;;
76745;SDS011;65671;49.976;20.038;2023-09-19T11:32:09;14.45;;;9.10;;
76745;SDS011;65671;49.976;20.038;2023-09-19T11:37:59;10.85;;;8.05;;
76745;SDS011;65671;49.976;20.038;2023-09-19T11:40:10;11.90;;;8.60;;
76745;SDS011;65671;49.976;20.038;2023-09-19T11:42:47;11.38;;;8.75;;
76745;SDS011;65671;49.976;20.038;2023-09-19T11:48:15;16.13;;;8.98;;
76745;SDS011;65671;49.976;20.038;2023-09-19T11:50:46;11.90;;;8.15;;
76745;SDS011;65671;49.976;20.038;2023-09-19T11:53:13;12.90;;;7.82;;
76745;SDS011;65671;49.976;20.038;2023-09-19T11:55:39;10.05;;;7.50;;
76745;SDS011;65671;49.976;20.038;2023-09-19T11:58:06;11.05;;;7.85;;
76745;SDS011;65671;49.976;20.038;2023-09-19T12:00:32;12.95;;;6.90;;
76745;SDS011;65671;49.976;20.038;2023-09-19T12:02:58;9.35;;;6.75;;
76745;SDS011;65671;49.976;20.038;2023-09-19T12:05:30;8.65;;;6.32;;
76745;SDS011;65671;49.976;20.038;2023-09-19T12:07:57;12.20;;;7.25;;
76745;SDS011;65671;49.976;20.038;2023-09-19T12:10:22;10.18;;;6.75;;
76745;SDS011;65671;49.976;20.038;2023-09-19T12:12:48;9.32;;;6.75;;
76745;SDS011;65671;49.976;20.038;2023-09-19T12:15:14;12.75;;;7.40;;
76745;SDS011;65671;49.976;20.038;2023-09-19T12:17:40;7.97;;;6.03;;
76745;SDS011;65671;49.976;20.038;2023-09-19T12:20:07;8.85;;;5.82;;
76745;SDS011;65671;49.976;20.038;2023-09-19T12:22:41;9.85;;;6.47;;
76745;SDS011;65671;49.976;20.038;2023-09-19T12:25:08;9.70;;;6.40;;
76745;SDS011;65671;49.976;20.038;2023-09-19T12:27:46;8.18;;;6.05;;
76745;SDS011;65671;49.976;20.038;2023-09-19T12:30:21;7.93;;;5.65;;
76745;SDS011;65671;49.976;20.038;2023-09-19T12:32:52;11.57;;;7.18;;
76745;SDS011;65671;49.976;20.038;2023-09-19T12:35:30;11.32;;;6.25;;
76745;SDS011;65671;49.976;20.038;2023-09-19T12:37:56;8.60;;;5.68;;
76745;SDS011;65671;49.976;20.038;2023-09-19T12:40:21;8.43;;;6.15;;
76745;SDS011;65671;49.976;20.038;2023-09-19T12:42:48;8.23;;;6.18;;
76745;SDS011;65671;49.976;20.038;2023-09-19T12:45:14;12.23;;;7.13;;
76745;SDS011;65671;49.976;20.038;2023-09-19T12:47:40;9.23;;;6.68;;
76745;SDS011;65671;49.976;20.038;2023-09-19T12:50:12;11.40;;;7.30;;
76745;SDS011;65671;49.976;20.038;2023-09-19T12:52:47;8.13;;;6.38;;
76745;SDS011;65671;49.976;20.038;2023-09-19T12:55:29;7.88;;;6.20;;
76745;SDS011;65671;49.976;20.038;2023-09-19T12:57:59;8.05;;;5.90;;
76745;SDS011;65671;49.976;20.038;2023-09-19T13:00:32;8.45;;;5.97;;
76745;SDS011;65671;49.976;20.038;2023-09-19T13:03:12;9.00;;;6.18;;
76745;SDS011;65671;49.976;20.038;2023-09-19T13:05:47;11.68;;;7.18;;
76745;SDS011;65671;49.976;20.038;2023-09-19T13:08:21;11.15;;;8.02;;
76745;SDS011;65671;49.976;20.038;2023-09-19T13:11:00;9.52;;;7.05;;
76745;SDS011;65671;49.976;20.038;2023-09-19T13:13:26;10.68;;;7.60;;
76745;SDS011;65671;49.976;20.038;2023-09-19T13:15:53;9.45;;;7.63;;
76745;SDS011;65671;49.976;20.038;2023-09-19T13:18:18;13.20;;;8.75;;
76745;SDS011;65671;49.976;20.038;2023-09-19T13:21:04;11.60;;;7.95;;
76745;SDS011;65671;49.976;20.038;2023-09-19T13:23:30;9.90;;;7.65;;
76745;SDS011;65671;49.976;20.038;2023-09-19T13:25:56;12.02;;;8.32;;
76745;SDS011;65671;49.976;20.038;2023-09-19T13:28:21;13.27;;;8.70;;
76745;SDS011;65671;49.976;20.038;2023-09-19T13:30:47;12.02;;;8.65;;
76745;SDS011;65671;49.976;20.038;2023-09-19T13:33:13;11.07;;;8.52;;
76745;SDS011;65671;49.976;20.038;2023-09-19T13:38:09;11.90;;;8.73;;
76745;SDS011;65671;49.976;20.038;2023-09-19T13:40:36;12.10;;;8.10;;
76745;SDS011;65671;49.976;20.038;2023-09-19T13:43:04;13.20;;;8.63;;
76745;SDS011;65671;49.976;20.038;2023-09-19T13:45:31;11.25;;;8.50;;
76745;SDS011;65671;49.976;20.038;2023-09-19T13:47:57;10.82;;;8.30;;
76745;SDS011;65671;49.976;20.038;2023-09-19T13:50:23;10.15;;;7.82;;
76745;SDS011;65671;49.976;20.038;2023-09-19T13:52:50;12.50;;;8.57;;
76745;SDS011;65671;49.976;20.038;2023-09-19T13:55:16;11.93;;;8.63;;
76745;SDS011;65671;49.976;20.038;2023-09-19T13:57:45;9.73;;;8.23;;
76745;SDS011;65671;49.976;20.038;2023-09-19T14:00:10;9.93;;;8.25;;
76745;SDS011;65671;49.976;20.038;2023-09-19T14:02:36;10.40;;;7.90;;
76745;SDS011;65671;49.976;20.038;2023-09-19T14:05:01;10.37;;;8.20;;
76745;SDS011;65671;49.976;20.038;2023-09-19T14:07:26;11.13;;;8.27;;
76745;SDS011;65671;49.976;20.038;2023-09-19T14:09:52;11.73;;;8.73;;
76745;SDS011;65671;49.976;20.038;2023-09-19T14:12:17;12.23;;;8.57;;
76745;SDS011;65671;49.976;20.038;2023-09-19T14:14:43;11.82;;;9.45;;
76745;SDS011;65671;49.976;20.038;2023-09-19T14:17:10;13.25;;;9.68;;
76745;SDS011;65671;49.976;20.038;2023-09-19T14:19:35;11.65;;;8.65;;
76745;SDS011;65671;49.976;20.038;2023-09-19T14:22:02;10.88;;;8.07;;
76745;SDS011;65671;49.976;20.038;2023-09-19T14:24:32;10.45;;;8.25;;
76745;SDS011;65671;49.976;20.038;2023-09-19T14:26:57;12.68;;;8.93;;
76745;SDS011;65671;49.976;20.038;2023-09-19T14:29:24;11.43;;;7.97;;
76745;SDS011;65671;49.976;20.038;2023-09-19T14:31:49;11.30;;;7.55;;
76745;SDS011;65671;49.976;20.038;2023-09-19T14:34:15;10.77;;;8.13;;
76745;SDS011;65671;49.976;20.038;2023-09-19T14:36:42;10.02;;;8.02;;
76745;SDS011;65671;49.976;20.038;2023-09-19T14:39:07;11.23;;;7.72;;
76745;SDS011;65671;49.976;20.038;2023-09-19T14:41:33;10.82;;;7.30;;
76745;SDS011;65671;49.976;20.038;2023-09-19T14:43:58;10.93;;;7.78;;
76745;SDS011;65671;49.976;20.038;2023-09-19T14:46:24;13.00;;;8.25;;
76745;SDS011;65671;49.976;20.038;2023-09-19T14:48:52;12.27;;;7.47;;
76745;SDS011;65671;49.976;20.038;2023-09-19T14:51:17;12.23;;;7.80;;
76745;SDS011;65671;49.976;20.038;2023-09-19T14:53:44;10.35;;;7.35;;
76745;SDS011;65671;49.976;20.038;2023-09-19T14:56:10;11.18;;;7.55;;
76745;SDS011;65671;49.976;20.038;2023-09-19T14:58:36;9.80;;;8.57;;
76745;SDS011;65671;49.976;20.038;2023-09-19T15:01:04;13.18;;;8.02;;
76745;SDS011;65671;49.976;20.038;2023-09-19T15:03:31;8.82;;;7.65;;